AIRPORT MAP

 RUNWAY INFORMATION

Runway 12 Runway length 7161 ft Runway width 148 ft
Runway elevation 292 ft Runway displaced threshold 0 ft Runway heading 127
Runway 30 Runway length 7161 ft Runway width 148 ft
Runway elevation 289 ft Runway displaced threshold 0 ft Runway heading 307

 AIRPORT FREQUENCIES

Type APP Name JAYAPURA A Frequency 119.1 MHZ
Type ATIS Name ATIS Frequency 128.8 MHZ
Type INFO Name JAYAPURA I Frequency 295.6 MHZ
Type TWR Name TWR Frequency 118.1 MHZ

 AIRPORT NEAR NAVIGATION AIDS

Type VOR-DME Name Jayapura Frequency 116200 KHZ
Type NDB Name Jayapura Frequency 395 KHZ

 METAR AND TAF INFORMATION

METAR FOR WAJJ
ADDS - METARS form results

(1002 UTC 25 September 2020)
Data provider http://aviationweather.gov/metar/data/
 
METAR text: WAJJ 250930Z 26003KT 9999 FEW013 28/23 Q1008 NOSIG
Conditions at: WAJJ (JAYAPURA/SENTANI, ID) observed 0930 UTC 25 September 2020
Temperature: 28.0°C (82°F)
Dewpoint: 23.0°C (73°F) [RH = 74%]
Pressure (altimeter): 29.76 inches Hg (1008.0 mb)
Winds: from the W (260 degrees) at 3 MPH (3 knots; 1.5 m/s)
Visibility: 6 or more miles (10+ km)
Ceiling: at least 12,000 feet AGL
Clouds: few clouds at 1300 feet AGL
Weather: no significant weather observed at this time